Time,TemperatureF,DewpointF,PressureIn,WindDirection,WindDirectionDegrees,WindSpeedMPH,WindSpeedGustMPH,Humidity,HourlyPrecipIn,Conditions,Clouds,dailyrainin,SoftwareType,DateUTC
2013-05-24 00:01:00,61.2,60.0,29.89,SW,221,0.0,0.0,96,0.00,,---,0.00,VWS V14.01,2013-05-24 04:01:00,
2013-05-24 00:06:00,61.1,60.0,29.89,SW,221,0.0,0.0,96,0.00,,---,0.00,VWS V14.01,2013-05-24 04:06:00,
2013-05-24 00:11:00,61.1,60.0,29.89,SW,221,0.0,0.0,96,0.00,,---,0.00,VWS V14.01,2013-05-24 04:11:00,
2013-05-24 00:16:00,61.1,60.0,29.90,SW,221,0.0,0.0,96,0.00,,---,0.00,VWS V14.01,2013-05-24 04:16:00,
2013-05-24 00:21:00,61.1,60.0,29.89,SW,221,0.0,0.0,96,0.00,,---,0.00,VWS V14.01,2013-05-24 04:21:00,
2013-05-24 00:26:00,61.1,60.0,29.89,SW,221,0.0,0.0,96,0.00,,---,0.00,VWS V14.01,2013-05-24 04:26:00,
2013-05-24 00:31:00,61.1,60.0,29.90,SW,221,0.0,0.0,96,0.00,,---,0.00,VWS V14.01,2013-05-24 04:31:00,
2013-05-24 00:36:00,61.1,60.0,29.89,SW,221,0.0,0.0,96,0.00,,---,0.00,VWS V14.01,2013-05-24 04:36:00,
2013-05-24 00:41:00,61.2,60.0,29.89,SW,221,0.0,0.0,96,0.00,,---,0.00,VWS V14.01,2013-05-24 04:41:00,
2013-05-24 00:46:00,61.1,60.0,29.89,SW,221,0.0,0.0,96,0.00,,---,0.00,VWS V14.01,2013-05-24 04:46:00,
2013-05-24 00:51:00,61.1,60.0,29.89,SW,221,0.0,0.0,96,0.00,,---,0.00,VWS V14.01,2013-05-24 04:51:00,
2013-05-24 00:56:00,61.1,60.0,29.89,SE,129,2.0,2.0,96,0.00,,---,0.00,VWS V14.01,2013-05-24 04:56:00,
2013-05-24 01:01:00,61.0,59.9,29.89,NNW,331,0.0,3.0,96,0.00,,---,0.00,VWS V14.01,2013-05-24 05:01:00,
2013-05-24 01:06:00,60.9,59.5,29.89,North,354,1.0,6.0,95,0.00,,---,0.00,VWS V14.01,2013-05-24 05:06:00,
2013-05-24 01:11:00,61.8,58.5,29.89,North,350,1.0,9.0,89,0.00,,---,0.00,VWS V14.01,2013-05-24 05:11:00,
2013-05-24 01:16:00,63.1,57.9,29.90,NNW,331,3.0,7.0,83,0.00,,---,0.00,VWS V14.01,2013-05-24 05:16:00,
2013-05-24 01:21:00,64.0,58.1,29.90,NW,320,4.0,7.0,81,0.00,,---,0.00,VWS V14.01,2013-05-24 05:21:00,
2013-05-24 01:26:00,63.9,57.6,29.90,NW,307,3.0,8.0,80,0.00,,---,0.00,VWS V14.01,2013-05-24 05:26:00,
2013-05-24 01:31:00,63.7,58.8,29.90,NNW,330,0.0,0.0,84,0.00,,---,0.00,VWS V14.01,2013-05-24 05:31:00,
2013-05-24 01:36:00,62.9,58.3,29.90,NNW,333,1.0,2.0,85,0.00,,---,0.00,VWS V14.01,2013-05-24 05:36:00,
2013-05-24 01:41:00,62.2,58.3,29.90,NNW,333,0.0,2.0,87,0.00,,---,0.00,VWS V14.01,2013-05-24 05:41:00,
2013-05-24 01:46:00,61.8,58.5,29.90,NNW,333,0.0,0.0,89,0.00,,---,0.00,VWS V14.01,2013-05-24 05:46:00,
2013-05-24 01:51:00,61.5,58.2,29.90,ESE,123,1.0,4.0,89,0.00,,---,0.00,VWS V14.01,2013-05-24 05:51:00,
2013-05-24 01:56:00,62.7,57.5,29.89,WSW,254,0.0,8.0,83,0.00,,---,0.00,VWS V14.01,2013-05-24 05:56:00,
2013-05-24 02:01:00,62.9,59.0,29.89,West,270,0.0,0.0,87,0.00,,---,0.00,VWS V14.01,2013-05-24 06:01:00,
2013-05-24 02:06:00,62.4,58.8,29.89,NW,307,0.0,3.0,88,0.00,,---,0.00,VWS V14.01,2013-05-24 06:06:00,
2013-05-24 02:11:00,61.7,58.7,29.88,NW,307,0.0,3.0,90,0.00,,---,0.00,VWS V14.01,2013-05-24 06:11:00,
2013-05-24 02:16:00,61.3,58.7,29.88,West,270,0.0,0.0,91,0.00,,---,0.00,VWS V14.01,2013-05-24 06:16:00,
2013-05-24 02:21:00,60.9,58.3,29.88,West,268,0.0,1.0,91,0.00,,---,0.00,VWS V14.01,2013-05-24 06:21:00,
2013-05-24 02:26:00,60.5,57.9,29.88,NW,310,0.0,3.0,91,0.00,,---,0.00,VWS V14.01,2013-05-24 06:26:00,
2013-05-24 02:31:00,60.4,57.8,29.88,WNW,284,0.0,0.0,91,0.00,,---,0.00,VWS V14.01,2013-05-24 06:31:00,
2013-05-24 02:36:00,60.2,57.9,29.88,WNW,284,0.0,0.0,92,0.00,,---,0.00,VWS V14.01,2013-05-24 06:36:00,
2013-05-24 02:41:00,60.0,58.0,29.88,WNW,284,0.0,0.0,93,0.00,,---,0.00,VWS V14.01,2013-05-24 06:41:00,
2013-05-24 02:46:00,59.9,57.9,29.88,WNW,285,0.0,1.0,93,0.00,,---,0.00,VWS V14.01,2013-05-24 06:46:00,
2013-05-24 02:51:00,59.7,57.7,29.88,WNW,285,0.0,1.0,93,0.00,,---,0.00,VWS V14.01,2013-05-24 06:51:00,
2013-05-24 02:56:00,59.5,57.5,29.88,WNW,285,0.0,1.0,93,0.00,,---,0.00,VWS V14.01,2013-05-24 06:56:00,
2013-05-24 03:01:00,59.3,57.6,29.88,WNW,285,0.0,0.0,94,0.00,,---,0.00,VWS V14.01,2013-05-24 07:01:00,
2013-05-24 03:06:00,59.1,57.4,29.88,WNW,285,0.0,0.0,94,0.00,,---,0.00,VWS V14.01,2013-05-24 07:06:00,
2013-05-24 03:11:00,58.9,57.2,29.88,WNW,285,0.0,1.0,94,0.00,,---,0.00,VWS V14.01,2013-05-24 07:11:00,
2013-05-24 03:16:00,58.7,57.0,29.88,WNW,285,0.0,0.0,94,0.00,,---,0.00,VWS V14.01,2013-05-24 07:16:00,
2013-05-24 03:21:00,58.6,56.9,29.87,WNW,285,0.0,0.0,94,0.00,,---,0.00,VWS V14.01,2013-05-24 07:21:00,
2013-05-24 03:26:00,58.5,56.8,29.87,WNW,285,0.0,0.0,94,0.00,,---,0.00,VWS V14.01,2013-05-24 07:26:00,
2013-05-24 03:31:00,58.4,57.0,29.87,WNW,285,0.0,1.0,95,0.00,,---,0.00,VWS V14.01,2013-05-24 07:31:00,
2013-05-24 03:36:00,58.2,56.8,29.87,WSW,252,0.0,2.0,95,0.00,,---,0.00,VWS V14.01,2013-05-24 07:36:00,
2013-05-24 03:41:00,58.1,56.4,29.87,WSW,252,0.0,2.0,94,0.00,,---,0.00,VWS V14.01,2013-05-24 07:41:00,
2013-05-24 03:46:00,57.9,56.5,29.87,WSW,252,0.0,0.0,95,0.00,,---,0.00,VWS V14.01,2013-05-24 07:46:00,
2013-05-24 03:51:00,57.7,56.3,29.87,WSW,252,0.0,0.0,95,0.00,,---,0.00,VWS V14.01,2013-05-24 07:51:00,
2013-05-24 03:56:00,57.5,56.1,29.88,WSW,252,0.0,0.0,95,0.00,,---,0.00,VWS V14.01,2013-05-24 07:56:00,
2013-05-24 04:01:00,57.4,56.0,29.88,WSW,252,0.0,0.0,95,0.00,,---,0.00,VWS V14.01,2013-05-24 08:01:00,
2013-05-24 04:06:00,57.4,56.0,29.88,WNW,294,0.0,3.0,95,0.00,,---,0.00,VWS V14.01,2013-05-24 08:06:00,
2013-05-24 04:11:00,57.5,56.1,29.88,WNW,294,0.0,3.0,95,0.00,,---,0.00,VWS V14.01,2013-05-24 08:11:00,
2013-05-24 04:16:00,57.5,56.1,29.89,WNW,294,0.0,0.0,95,0.00,,---,0.00,VWS V14.01,2013-05-24 08:16:00,
2013-05-24 04:21:00,57.4,56.0,29.89,WNW,294,0.0,0.0,95,0.00,,---,0.00,VWS V14.01,2013-05-24 08:21:00,
2013-05-24 04:26:00,57.6,56.2,29.88,WNW,294,0.0,0.0,95,0.00,,---,0.00,VWS V14.01,2013-05-24 08:26:00,
2013-05-24 04:31:00,57.6,56.2,29.89,NW,320,0.0,0.0,95,0.00,,---,0.00,VWS V14.01,2013-05-24 08:31:00,
2013-05-24 04:36:00,57.6,56.2,29.89,NW,320,0.0,0.0,95,0.00,,---,0.00,VWS V14.01,2013-05-24 08:36:00,
2013-05-24 04:41:00,57.5,56.1,29.89,NW,320,0.0,0.0,95,0.00,,---,0.00,VWS V14.01,2013-05-24 08:41:00,
2013-05-24 04:46:00,57.5,56.1,29.88,NW,320,0.0,0.0,95,0.00,,---,0.00,VWS V14.01,2013-05-24 08:46:00,
2013-05-24 04:51:00,57.3,55.9,29.88,NW,320,0.0,1.0,95,0.00,,---,0.00,VWS V14.01,2013-05-24 08:51:00,
2013-05-24 04:56:00,57.2,55.8,29.88,NW,320,0.0,2.0,95,0.00,,---,0.00,VWS V14.01,2013-05-24 08:56:00,
2013-05-24 05:01:00,57.1,55.7,29.88,NW,320,0.0,0.0,95,0.00,,---,0.00,VWS V14.01,2013-05-24 09:01:00,
2013-05-24 05:06:00,56.8,55.4,29.88,NW,320,0.0,0.0,95,0.00,,---,0.00,VWS V14.01,2013-05-24 09:06:00,
2013-05-24 05:11:00,56.7,55.3,29.88,NW,320,0.0,1.0,95,0.00,,---,0.00,VWS V14.01,2013-05-24 09:11:00,
2013-05-24 05:16:00,56.6,55.2,29.89,NW,320,0.0,1.0,95,0.00,,---,0.00,VWS V14.01,2013-05-24 09:16:00,
2013-05-24 05:21:00,56.4,55.0,29.89,NW,320,0.0,1.0,95,0.00,,---,0.00,VWS V14.01,2013-05-24 09:21:00,
2013-05-24 05:26:00,56.3,54.9,29.89,NW,320,0.0,1.0,95,0.00,,---,0.00,VWS V14.01,2013-05-24 09:26:00,
2013-05-24 05:31:00,56.3,54.9,29.89,NW,320,0.0,0.0,95,0.00,,---,0.00,VWS V14.01,2013-05-24 09:31:00,
2013-05-24 05:36:00,56.3,54.9,29.89,NNW,343,0.0,6.0,95,0.00,,---,0.00,VWS V14.01,2013-05-24 09:36:00,
2013-05-24 05:41:00,56.4,55.0,29.89,NNW,343,2.0,6.0,95,0.00,,---,0.00,VWS V14.01,2013-05-24 09:41:00,
2013-05-24 05:46:00,56.4,55.0,29.90,NNW,343,0.0,0.0,95,0.00,,---,0.00,VWS V14.01,2013-05-24 09:46:00,
2013-05-24 05:51:00,56.4,55.0,29.90,NNE,32,0.0,1.0,95,0.00,,---,0.00,VWS V14.01,2013-05-24 09:51:00,
2013-05-24 05:56:00,56.4,55.0,29.90,North,356,0.0,2.0,95,0.00,,---,0.00,VWS V14.01,2013-05-24 09:56:00,
2013-05-24 06:01:00,56.4,55.0,29.90,North,356,0.0,0.0,95,0.00,,---,0.00,VWS V14.01,2013-05-24 10:01:00,
2013-05-24 06:06:00,56.3,54.9,29.91,North,356,0.0,2.0,95,0.00,,---,0.00,VWS V14.01,2013-05-24 10:06:00,
2013-05-24 06:11:00,56.4,55.0,29.91,North,356,0.0,2.0,95,0.00,,---,0.00,VWS V14.01,2013-05-24 10:11:00,
2013-05-24 06:16:00,56.7,55.6,29.91,NNW,340,3.0,4.0,96,0.00,,---,0.00,VWS V14.01,2013-05-24 10:16:00,
2013-05-24 06:21:00,57.8,55.5,29.91,NW,306,2.0,8.0,92,0.01,,---,0.01,VWS V14.01,2013-05-24 10:21:00,
2013-05-24 06:26:00,58.9,55.0,29.92,NW,322,4.0,8.0,87,0.01,,---,0.01,VWS V14.01,2013-05-24 10:26:00,
2013-05-24 06:31:00,60.6,55.4,29.92,WNW,291,4.0,7.0,83,0.01,,---,0.01,VWS V14.01,2013-05-24 10:31:00,
2013-05-24 06:36:00,61.4,55.5,29.92,WNW,300,3.0,11.0,81,0.01,,---,0.01,VWS V14.01,2013-05-24 10:36:00,
2013-05-24 06:41:00,61.1,55.9,29.92,NNW,333,6.0,11.0,83,0.01,,---,0.01,VWS V14.01,2013-05-24 10:41:00,
2013-05-24 06:46:00,60.9,54.7,29.93,North,5,1.0,3.0,80,0.01,,---,0.01,VWS V14.01,2013-05-24 10:46:00,
2013-05-24 06:51:00,60.9,54.7,29.93,NE,41,4.0,10.0,80,0.01,,---,0.01,VWS V14.01,2013-05-24 10:51:00,
2013-05-24 06:56:00,61.1,53.8,29.94,NNW,339,4.0,13.0,77,0.01,,---,0.01,VWS V14.01,2013-05-24 10:56:00,
2013-05-24 07:01:00,61.0,53.4,29.94,North,11,8.0,8.0,76,0.01,,---,0.01,VWS V14.01,2013-05-24 11:01:00,
2013-05-24 07:06:00,60.9,52.9,29.95,NNW,348,6.0,13.0,75,0.01,,---,0.01,VWS V14.01,2013-05-24 11:06:00,
2013-05-24 07:11:00,60.4,51.7,29.95,WNW,302,7.0,13.0,73,0.01,,---,0.01,VWS V14.01,2013-05-24 11:11:00,
2013-05-24 07:16:00,60.0,51.0,29.95,North,5,6.0,10.0,72,0.01,,---,0.01,VWS V14.01,2013-05-24 11:16:00,
2013-05-24 07:21:00,59.9,50.9,29.96,NW,320,0.0,10.0,72,0.01,,---,0.01,VWS V14.01,2013-05-24 11:21:00,
2013-05-24 07:26:00,59.9,51.6,29.96,North,4,8.0,10.0,74,0.01,,---,0.01,VWS V14.01,2013-05-24 11:26:00,
2013-05-24 07:31:00,59.8,51.1,29.96,North,357,1.0,4.0,73,0.00,,---,0.01,VWS V14.01,2013-05-24 11:31:00,
2013-05-24 07:36:00,59.5,51.2,29.96,WNW,284,7.0,9.0,74,0.00,,---,0.01,VWS V14.01,2013-05-24 11:36:00,
2013-05-24 07:41:00,58.9,49.9,29.96,NNW,330,7.0,9.0,72,0.00,,---,0.01,VWS V14.01,2013-05-24 11:41:00,
2013-05-24 07:46:00,58.7,50.5,29.97,ESE,104,1.0,2.0,74,0.00,,---,0.01,VWS V14.01,2013-05-24 11:46:00,
2013-05-24 07:51:00,58.8,49.8,29.98,WSW,242,2.0,10.0,72,0.00,,---,0.01,VWS V14.01,2013-05-24 11:51:00,
2013-05-24 07:56:00,58.3,49.3,29.98,North,356,4.0,10.0,72,0.00,,---,0.01,VWS V14.01,2013-05-24 11:56:00,
2013-05-24 08:01:00,57.8,48.8,29.99,NW,324,2.0,3.0,72,0.00,,---,0.01,VWS V14.01,2013-05-24 12:01:00,
2013-05-24 08:06:00,57.5,49.3,29.99,North,2,1.0,7.0,74,0.00,,---,0.01,VWS V14.01,2013-05-24 12:06:00,
2013-05-24 08:11:00,57.4,49.2,30.00,NW,326,1.0,7.0,74,0.00,,---,0.01,VWS V14.01,2013-05-24 12:11:00,
2013-05-24 08:16:00,57.5,48.9,30.00,NW,319,3.0,6.0,73,0.00,,---,0.01,VWS V14.01,2013-05-24 12:16:00,
2013-05-24 08:21:00,57.2,48.3,30.00,North,349,1.0,12.0,72,0.00,,---,0.01,VWS V14.01,2013-05-24 12:21:00,
2013-05-24 08:26:00,56.8,48.2,30.00,North,358,3.0,12.0,73,0.00,,---,0.01,VWS V14.01,2013-05-24 12:26:00,
2013-05-24 08:31:00,56.4,48.2,30.00,NNW,348,5.0,7.0,74,0.00,,---,0.01,VWS V14.01,2013-05-24 12:31:00,
2013-05-24 08:36:00,56.0,47.5,30.01,NW,316,7.0,15.0,73,0.00,,---,0.01,VWS V14.01,2013-05-24 12:36:00,
2013-05-24 08:41:00,56.0,47.5,30.02,NNW,330,3.0,15.0,73,0.00,,---,0.01,VWS V14.01,2013-05-24 12:41:00,
2013-05-24 08:46:00,56.0,47.5,30.02,NW,326,1.0,3.0,73,0.00,,---,0.01,VWS V14.01,2013-05-24 12:46:00,
2013-05-24 08:51:00,56.0,48.5,30.02,NNW,337,4.0,9.0,76,0.00,,---,0.01,VWS V14.01,2013-05-24 12:51:00,
2013-05-24 08:56:00,55.8,47.3,30.03,NW,308,7.0,9.0,73,0.00,,---,0.01,VWS V14.01,2013-05-24 12:56:00,
2013-05-24 09:01:00,55.6,47.8,30.03,NW,307,5.0,7.0,75,0.00,,---,0.01,VWS V14.01,2013-05-24 13:01:00,
2013-05-24 09:06:00,55.7,46.8,30.03,NW,309,4.0,10.0,72,0.00,,---,0.01,VWS V14.01,2013-05-24 13:06:00,
2013-05-24 09:11:00,55.8,47.7,30.04,NW,316,2.0,10.0,74,0.00,,---,0.01,VWS V14.01,2013-05-24 13:11:00,
2013-05-24 09:16:00,55.6,46.7,30.04,WNW,285,7.0,7.0,72,0.00,,---,0.01,VWS V14.01,2013-05-24 13:16:00,
2013-05-24 09:21:00,55.4,46.5,30.04,NW,320,5.0,12.0,72,0.00,,---,0.01,VWS V14.01,2013-05-24 13:21:00,
2013-05-24 09:26:00,55.2,46.7,30.04,NW,315,1.0,12.0,73,0.00,,---,0.01,VWS V14.01,2013-05-24 13:26:00,
2013-05-24 09:31:00,55.2,46.3,30.05,NNW,329,2.0,4.0,72,0.00,,---,0.01,VWS V14.01,2013-05-24 13:31:00,
2013-05-24 09:35:00,55.7,47.2,30.05,WNW,297,5.0,7.0,73,0.00,,---,0.01,VWS V14.01,2013-05-24 13:35:00,
2013-05-24 09:40:00,56.4,47.5,30.05,NNW,343,4.0,10.0,72,0.00,,---,0.01,VWS V14.01,2013-05-24 13:40:00,
2013-05-24 09:45:00,56.2,46.9,30.06,North,360,6.0,7.0,71,0.00,,---,0.01,VWS V14.01,2013-05-24 13:45:00,
2013-05-24 09:50:00,55.6,44.8,30.06,NW,323,4.0,9.0,67,0.00,,---,0.01,VWS V14.01,2013-05-24 13:50:00,
2013-05-24 09:55:00,55.3,46.4,30.07,North,3,2.0,9.0,72,0.00,,---,0.01,VWS V14.01,2013-05-24 13:55:00,
2013-05-24 10:00:00,55.1,44.7,30.07,North,354,4.0,7.0,68,0.00,,---,0.01,VWS V14.01,2013-05-24 14:00:00,
2013-05-24 10:05:00,55.1,45.1,30.07,NNE,12,3.0,7.0,69,0.00,,---,0.01,VWS V14.01,2013-05-24 14:05:00,
2013-05-24 10:10:00,55.2,45.2,30.07,North,6,3.0,8.0,69,0.00,,---,0.01,VWS V14.01,2013-05-24 14:10:00,
2013-05-24 10:15:00,55.5,45.9,30.07,North,5,4.0,4.0,70,0.00,,---,0.01,VWS V14.01,2013-05-24 14:15:00,
2013-05-24 10:20:00,55.8,45.8,30.08,NW,304,1.0,7.0,69,0.00,,---,0.01,VWS V14.01,2013-05-24 14:20:00,
2013-05-24 10:25:00,55.9,45.5,30.08,NNW,330,3.0,7.0,68,0.00,,---,0.01,VWS V14.01,2013-05-24 14:25:00,
2013-05-24 10:30:00,56.0,46.0,30.08,WNW,293,8.0,8.0,69,0.00,,---,0.01,VWS V14.01,2013-05-24 14:30:00,
2013-05-24 10:35:00,56.3,45.5,30.08,NW,315,5.0,12.0,67,0.00,,---,0.01,VWS V14.01,2013-05-24 14:35:00,
2013-05-24 10:40:00,56.3,45.5,30.08,NNW,335,1.0,12.0,67,0.00,,---,0.01,VWS V14.01,2013-05-24 14:40:00,
2013-05-24 10:45:00,56.8,46.4,30.09,WNW,285,2.0,4.0,68,0.00,,---,0.01,VWS V14.01,2013-05-24 14:45:00,
2013-05-24 10:50:00,57.5,48.6,30.08,WSW,247,2.0,7.0,72,0.00,,---,0.01,VWS V14.01,2013-05-24 14:50:00,
2013-05-24 10:55:00,58.4,47.5,30.09,NW,316,2.0,7.0,67,0.00,,---,0.01,VWS V14.01,2013-05-24 14:55:00,
2013-05-24 11:00:00,58.4,45.0,30.09,North,8,9.0,9.0,61,0.00,,---,0.01,VWS V14.01,2013-05-24 15:00:00,
2013-05-24 11:05:00,57.7,45.2,30.09,NNW,339,1.0,11.0,63,0.00,,---,0.01,VWS V14.01,2013-05-24 15:05:00,
2013-05-24 11:10:00,57.3,45.7,30.10,North,354,4.0,15.0,65,0.00,,---,0.01,VWS V14.01,2013-05-24 15:10:00,
2013-05-24 11:15:00,57.2,46.4,30.10,NNW,328,3.0,10.0,67,0.00,,---,0.01,VWS V14.01,2013-05-24 15:15:00,
2013-05-24 11:20:00,57.6,46.7,30.10,North,11,4.0,10.0,67,0.00,,---,0.01,VWS V14.01,2013-05-24 15:20:00,
2013-05-24 11:25:00,57.8,45.3,30.10,North,360,5.0,12.0,63,0.00,,---,0.01,VWS V14.01,2013-05-24 15:25:00,
2013-05-24 11:30:00,57.5,45.0,30.10,North,356,2.0,6.0,63,0.00,,---,0.01,VWS V14.01,2013-05-24 15:30:00,
2013-05-24 11:35:00,57.8,45.7,30.11,NW,319,2.0,6.0,64,0.00,,---,0.01,VWS V14.01,2013-05-24 15:35:00,
2013-05-24 11:40:00,57.2,45.2,30.11,NNW,336,2.0,10.0,64,0.00,,---,0.01,VWS V14.01,2013-05-24 15:40:00,
2013-05-24 11:45:00,56.8,46.0,30.12,NNW,345,2.0,3.0,67,0.00,,---,0.01,VWS V14.01,2013-05-24 15:45:00,
2013-05-24 11:50:00,56.4,44.8,30.12,NNW,340,3.0,16.0,65,0.00,,---,0.01,VWS V14.01,2013-05-24 15:50:00,
2013-05-24 11:55:00,56.2,45.0,30.12,North,3,3.0,16.0,66,0.00,,---,0.01,VWS V14.01,2013-05-24 15:55:00,
2013-05-24 12:00:00,56.0,44.4,30.13,NNW,342,4.0,5.0,65,0.00,,---,0.01,VWS V14.01,2013-05-24 16:00:00,
2013-05-24 12:05:00,55.9,43.9,30.13,NNW,328,5.0,15.0,64,0.00,,---,0.01,VWS V14.01,2013-05-24 16:05:00,
2013-05-24 12:10:00,55.8,43.8,30.13,WNW,295,6.0,15.0,64,0.00,,---,0.01,VWS V14.01,2013-05-24 16:10:00,
2013-05-24 12:15:00,56.0,45.6,30.13,NNW,341,3.0,6.0,68,0.00,,---,0.01,VWS V14.01,2013-05-24 16:15:00,
2013-05-24 12:20:00,56.2,45.4,30.13,North,8,2.0,6.0,67,0.00,,---,0.01,VWS V14.01,2013-05-24 16:20:00,
2013-05-24 12:25:00,56.5,44.1,30.14,West,277,13.0,14.0,63,0.00,,---,0.01,VWS V14.01,2013-05-24 16:25:00,
2013-05-24 12:30:00,56.3,43.5,30.14,NNW,330,10.0,14.0,62,0.00,,---,0.01,VWS V14.01,2013-05-24 16:30:00,
2013-05-24 12:35:00,56.7,44.7,30.14,North,352,3.0,18.0,64,0.00,,---,0.01,VWS V14.01,2013-05-24 16:35:00,
2013-05-24 12:40:00,57.4,45.3,30.14,NNW,332,1.0,18.0,64,0.00,,---,0.01,VWS V14.01,2013-05-24 16:40:00,
2013-05-24 12:45:00,56.6,43.3,30.14,WNW,295,14.0,14.0,61,0.00,,---,0.01,VWS V14.01,2013-05-24 16:45:00,
2013-05-24 12:50:00,56.5,44.5,30.14,NNW,343,4.0,16.0,64,0.00,,---,0.01,VWS V14.01,2013-05-24 16:50:00,
2013-05-24 12:55:00,56.8,43.9,30.14,NNW,346,4.0,16.0,62,0.00,,---,0.01,VWS V14.01,2013-05-24 16:55:00,
2013-05-24 13:00:00,56.9,43.6,30.15,NNW,328,7.0,10.0,61,0.00,,---,0.01,VWS V14.01,2013-05-24 17:00:00,
2013-05-24 13:05:00,57.1,44.2,30.15,NW,306,7.0,14.0,62,0.00,,---,0.01,VWS V14.01,2013-05-24 17:05:00,
2013-05-24 13:10:00,57.2,43.9,30.14,NNW,337,2.0,14.0,61,0.00,,---,0.01,VWS V14.01,2013-05-24 17:10:00,
2013-05-24 13:15:00,57.0,43.7,30.15,NNW,341,2.0,3.0,61,0.00,,---,0.01,VWS V14.01,2013-05-24 17:15:00,
2013-05-24 13:20:00,56.7,44.7,30.15,NNE,16,5.0,18.0,64,0.00,,---,0.01,VWS V14.01,2013-05-24 17:20:00,
2013-05-24 13:25:00,57.7,43.0,30.14,NW,313,10.0,18.0,58,0.00,,---,0.01,VWS V14.01,2013-05-24 17:25:00,
2013-05-24 13:30:00,57.5,43.3,30.15,North,8,8.0,8.0,59,0.00,,---,0.01,VWS V14.01,2013-05-24 17:30:00,
2013-05-24 13:35:00,56.9,41.8,30.14,North,5,4.0,11.0,57,0.00,,---,0.01,VWS V14.01,2013-05-24 17:35:00,
2013-05-24 13:40:00,57.5,42.8,30.14,WNW,300,15.0,21.0,58,0.00,,---,0.01,VWS V14.01,2013-05-24 17:40:00,
2013-05-24 13:45:00,57.8,44.0,30.15,West,270,7.0,7.0,60,0.00,,---,0.01,VWS V14.01,2013-05-24 17:45:00,
2013-05-24 13:50:00,57.4,43.2,30.15,North,10,2.0,12.0,59,0.00,,---,0.01,VWS V14.01,2013-05-24 17:50:00,
2013-05-24 13:55:00,57.0,42.4,30.16,North,357,1.0,16.0,58,0.00,,---,0.01,VWS V14.01,2013-05-24 17:55:00,
2013-05-24 14:00:00,56.7,42.5,30.16,NW,318,9.0,14.0,59,0.00,,---,0.01,VWS V14.01,2013-05-24 18:00:00,
2013-05-24 14:05:00,56.7,43.0,30.16,NW,314,10.0,14.0,60,0.00,,---,0.01,VWS V14.01,2013-05-24 18:05:00,
2013-05-24 14:10:00,56.8,42.2,30.16,NW,319,4.0,14.0,58,0.00,,---,0.01,VWS V14.01,2013-05-24 18:10:00,
2013-05-24 14:15:00,57.3,42.7,30.16,North,6,7.0,10.0,58,0.00,,---,0.01,VWS V14.01,2013-05-24 18:15:00,
2013-05-24 14:20:00,57.2,42.6,30.16,NNW,346,7.0,19.0,58,0.00,,---,0.01,VWS V14.01,2013-05-24 18:20:00,
2013-05-24 14:25:00,57.1,40.6,30.15,NW,314,8.0,19.0,54,0.00,,---,0.01,VWS V14.01,2013-05-24 18:25:00,
2013-05-24 14:30:00,57.1,42.0,30.15,NW,325,4.0,9.0,57,0.00,,---,0.01,VWS V14.01,2013-05-24 18:30:00,
2013-05-24 14:35:00,58.2,44.4,30.15,WNW,300,5.0,9.0,60,0.00,,---,0.01,VWS V14.01,2013-05-24 18:35:00,
2013-05-24 14:40:00,58.6,42.0,30.16,North,356,4.0,14.0,54,0.00,,---,0.01,VWS V14.01,2013-05-24 18:40:00,
2013-05-24 14:45:00,58.3,39.8,30.16,NW,326,7.0,11.0,50,0.00,,---,0.01,VWS V14.01,2013-05-24 18:45:00,
2013-05-24 14:50:00,57.9,39.4,30.15,North,5,3.0,11.0,50,0.00,,---,0.01,VWS V14.01,2013-05-24 18:50:00,
2013-05-24 14:55:00,57.9,38.9,30.16,NNW,331,7.0,18.0,49,0.00,,---,0.01,VWS V14.01,2013-05-24 18:55:00,
2013-05-24 15:00:00,57.6,38.6,30.16,NNW,342,4.0,7.0,49,0.00,,---,0.01,VWS V14.01,2013-05-24 19:00:00,
2013-05-24 15:05:00,57.7,40.2,30.17,North,354,8.0,12.0,52,0.00,,---,0.01,VWS V14.01,2013-05-24 19:05:00,
2013-05-24 15:10:00,57.7,40.2,30.16,North,11,7.0,12.0,52,0.00,,---,0.01,VWS V14.01,2013-05-24 19:10:00,
2013-05-24 15:15:00,58.0,40.0,30.17,NNW,347,7.0,8.0,51,0.00,,---,0.01,VWS V14.01,2013-05-24 19:15:00,
2013-05-24 15:20:00,57.9,40.4,30.16,North,360,8.0,14.0,52,0.00,,---,0.01,VWS V14.01,2013-05-24 19:20:00,
2013-05-24 15:25:00,58.5,41.0,30.16,NW,312,10.0,16.0,52,0.00,,---,0.01,VWS V14.01,2013-05-24 19:25:00,
2013-05-24 15:30:00,58.4,39.8,30.16,NNW,345,9.0,9.0,50,0.00,,---,0.01,VWS V14.01,2013-05-24 19:30:00,
2013-05-24 15:35:00,58.4,38.3,30.17,North,352,4.0,15.0,47,0.00,,---,0.01,VWS V14.01,2013-05-24 19:35:00,
2013-05-24 15:40:00,59.0,39.9,30.16,WNW,298,13.0,20.0,49,0.00,,---,0.01,VWS V14.01,2013-05-24 19:40:00,
2013-05-24 15:45:00,59.1,40.5,30.16,NW,319,4.0,7.0,50,0.00,,---,0.01,VWS V14.01,2013-05-24 19:45:00,
2013-05-24 15:50:00,58.8,38.1,30.16,NW,315,1.0,17.0,46,0.00,,---,0.01,VWS V14.01,2013-05-24 19:50:00,
2013-05-24 15:55:00,59.0,37.7,30.16,NW,320,12.0,17.0,45,0.00,,---,0.01,VWS V14.01,2013-05-24 19:55:00,
2013-05-24 16:00:00,58.7,36.9,30.16,NNW,331,5.0,7.0,44,0.00,,---,0.01,VWS V14.01,2013-05-24 20:00:00,
2013-05-24 16:05:00,58.5,38.4,30.17,NNW,327,10.0,15.0,47,0.00,,---,0.01,VWS V14.01,2013-05-24 20:05:00,
2013-05-24 16:10:00,58.3,36.5,30.16,North,352,7.0,16.0,44,0.00,,---,0.01,VWS V14.01,2013-05-24 20:10:00,
2013-05-24 16:15:00,58.7,39.1,30.16,NNE,14,8.0,11.0,48,0.00,,---,0.01,VWS V14.01,2013-05-24 20:15:00,
2013-05-24 16:20:00,58.7,40.1,30.16,North,4,2.0,11.0,50,0.00,,---,0.01,VWS V14.01,2013-05-24 20:20:00,
2013-05-24 16:25:00,59.0,38.3,30.16,NNE,12,4.0,11.0,46,0.00,,---,0.01,VWS V14.01,2013-05-24 20:25:00,
2013-05-24 16:30:00,59.2,38.5,30.16,North,8,1.0,3.0,46,0.00,,---,0.01,VWS V14.01,2013-05-24 20:30:00,
2013-05-24 16:35:00,59.6,38.2,30.16,NNE,14,5.0,19.0,45,0.00,,---,0.01,VWS V14.01,2013-05-24 20:35:00,
2013-05-24 16:40:00,59.4,38.1,30.16,WNW,291,8.0,19.0,45,0.00,,---,0.01,VWS V14.01,2013-05-24 20:40:00,
2013-05-24 16:45:00,59.3,37.4,30.15,NNW,343,6.0,7.0,44,0.00,,---,0.01,VWS V14.01,2013-05-24 20:45:00,
2013-05-24 16:50:00,59.3,37.4,30.15,North,351,6.0,13.0,44,0.00,,---,0.01,VWS V14.01,2013-05-24 20:50:00,
2013-05-24 16:55:00,59.5,36.4,30.15,WNW,300,10.0,17.0,42,0.00,,---,0.01,VWS V14.01,2013-05-24 20:55:00,
2013-05-24 17:00:00,59.5,37.0,30.16,NW,319,6.0,13.0,43,0.00,,---,0.01,VWS V14.01,2013-05-24 21:00:00,
2013-05-24 17:05:00,59.6,36.5,30.15,North,360,7.0,14.0,42,0.00,,---,0.01,VWS V14.01,2013-05-24 21:05:00,
2013-05-24 17:10:00,59.3,36.8,30.15,NW,310,8.0,14.0,43,0.00,,---,0.01,VWS V14.01,2013-05-24 21:10:00,
2013-05-24 17:15:00,59.6,37.1,30.16,North,4,7.0,19.0,43,0.00,,---,0.01,VWS V14.01,2013-05-24 21:15:00,
2013-05-24 17:20:00,59.8,37.3,30.16,NW,325,6.0,19.0,43,0.00,,---,0.01,VWS V14.01,2013-05-24 21:20:00,
2013-05-24 17:25:00,60.2,37.6,30.16,NNW,343,6.0,19.0,43,0.00,,---,0.01,VWS V14.01,2013-05-24 21:25:00,
2013-05-24 17:30:00,59.9,37.4,30.16,WNW,285,7.0,8.0,43,0.00,,---,0.01,VWS V14.01,2013-05-24 21:30:00,
2013-05-24 17:35:00,60.0,38.0,30.16,NNW,343,4.0,9.0,44,0.00,,---,0.01,VWS V14.01,2013-05-24 21:35:00,
2013-05-24 17:40:00,59.8,37.3,30.16,North,6,2.0,10.0,43,0.00,,---,0.01,VWS V14.01,2013-05-24 21:40:00,
2013-05-24 17:45:00,59.7,38.3,30.16,North,359,1.0,2.0,45,0.00,,---,0.01,VWS V14.01,2013-05-24 21:45:00,
2013-05-24 17:50:00,59.8,36.1,30.16,West,279,1.0,9.0,41,0.00,,---,0.01,VWS V14.01,2013-05-24 21:50:00,
2013-05-24 17:55:00,60.4,37.8,30.16,WNW,298,7.0,10.0,43,0.00,,---,0.01,VWS V14.01,2013-05-24 21:55:00,
2013-05-24 18:00:00,60.7,39.8,30.16,NNE,23,3.0,3.0,46,0.00,,---,0.01,VWS V14.01,2013-05-24 22:00:00,
2013-05-24 18:05:00,60.3,37.1,30.16,North,352,0.0,6.0,42,0.00,,---,0.01,VWS V14.01,2013-05-24 22:05:00,
2013-05-24 18:10:00,60.5,37.3,30.16,NNW,329,1.0,10.0,42,0.00,,---,0.01,VWS V14.01,2013-05-24 22:10:00,
2013-05-24 18:15:00,60.6,38.0,30.16,West,279,2.0,2.0,43,0.00,,---,0.01,VWS V14.01,2013-05-24 22:15:00,
2013-05-24 18:20:00,60.2,36.4,30.16,NW,316,4.0,11.0,41,0.00,,---,0.01,VWS V14.01,2013-05-24 22:20:00,
2013-05-24 18:25:00,60.0,38.0,30.16,NNW,336,1.0,15.0,44,0.00,,---,0.01,VWS V14.01,2013-05-24 22:25:00,
2013-05-24 18:30:00,60.0,38.0,30.16,WNW,288,3.0,3.0,44,0.00,,---,0.01,VWS V14.01,2013-05-24 22:30:00,
2013-05-24 18:35:00,60.4,36.6,30.16,NW,318,2.0,8.0,41,0.00,,---,0.01,VWS V14.01,2013-05-24 22:35:00,
2013-05-24 18:40:00,60.3,37.7,30.16,North,2,2.0,8.0,43,0.00,,---,0.01,VWS V14.01,2013-05-24 22:40:00,
2013-05-24 18:45:00,59.9,37.4,30.16,NW,316,3.0,3.0,43,0.00,,---,0.01,VWS V14.01,2013-05-24 22:45:00,
2013-05-24 18:50:00,59.9,36.2,30.16,NW,307,4.0,7.0,41,0.00,,---,0.01,VWS V14.01,2013-05-24 22:50:00,
2013-05-24 18:55:00,59.5,35.2,30.17,NW,326,4.0,17.0,40,0.00,,---,0.01,VWS V14.01,2013-05-24 22:55:00,
2013-05-24 19:00:00,58.9,35.9,30.17,NW,326,6.0,6.0,42,0.00,,---,0.01,VWS V14.01,2013-05-24 23:00:00,
2013-05-24 19:05:00,58.7,35.7,30.17,WNW,300,11.0,20.0,42,0.00,,---,0.01,VWS V14.01,2013-05-24 23:05:00,
2013-05-24 19:10:00,58.6,35.6,30.17,NNW,343,4.0,20.0,42,0.00,,---,0.01,VWS V14.01,2013-05-24 23:10:00,
2013-05-24 19:15:00,58.6,37.3,30.18,North,10,8.0,8.0,45,0.00,,---,0.01,VWS V14.01,2013-05-24 23:15:00,
2013-05-24 19:20:00,58.3,35.3,30.19,West,277,3.0,9.0,42,0.00,,---,0.01,VWS V14.01,2013-05-24 23:20:00,
2013-05-24 19:25:00,58.2,35.8,30.19,NNW,346,4.0,16.0,43,0.00,,---,0.01,VWS V14.01,2013-05-24 23:25:00,
2013-05-24 19:30:00,58.1,35.7,30.19,WNW,298,10.0,12.0,43,0.00,,---,0.01,VWS V14.01,2013-05-24 23:30:00,
2013-05-24 19:35:00,57.8,35.5,30.20,NNE,19,3.0,12.0,43,0.00,,---,0.01,VWS V14.01,2013-05-24 23:35:00,
2013-05-24 19:40:00,57.2,35.5,30.20,WNW,300,7.0,13.0,44,0.00,,---,0.01,VWS V14.01,2013-05-24 23:40:00,
2013-05-24 19:45:00,56.7,35.0,30.20,NNW,333,4.0,5.0,44,0.00,,---,0.01,VWS V14.01,2013-05-24 23:45:00,
2013-05-24 19:50:00,56.3,35.2,30.21,NW,312,6.0,9.0,45,0.00,,---,0.01,VWS V14.01,2013-05-24 23:50:00,
2013-05-24 19:55:00,55.9,34.9,30.21,NNW,335,4.0,14.0,45,0.00,,---,0.01,VWS V14.01,2013-05-24 23:55:00,
2013-05-24 20:00:00,55.5,34.5,30.21,NNW,345,6.0,9.0,45,0.00,,---,0.01,VWS V14.01,2013-05-25 00:00:00,
2013-05-24 20:05:00,55.4,33.9,30.22,NW,326,7.0,15.0,44,0.00,,---,0.01,VWS V14.01,2013-05-25 00:05:00,
2013-05-24 20:10:00,55.2,34.8,30.22,WNW,286,6.0,15.0,46,0.00,,---,0.01,VWS V14.01,2013-05-25 00:10:00,
2013-05-24 20:15:00,54.9,34.5,30.22,WNW,299,8.0,15.0,46,0.00,,---,0.01,VWS V14.01,2013-05-25 00:15:00,
2013-05-24 20:20:00,54.7,34.9,30.22,NNW,339,3.0,9.0,47,0.00,,---,0.01,VWS V14.01,2013-05-25 00:20:00,
2013-05-24 20:25:00,54.6,34.2,30.22,NW,314,2.0,11.0,46,0.00,,---,0.01,VWS V14.01,2013-05-25 00:25:00,
2013-05-24 20:30:00,54.3,35.6,30.22,NNW,329,6.0,7.0,49,0.00,,---,0.01,VWS V14.01,2013-05-25 00:30:00,
2013-05-24 20:35:00,53.9,35.2,30.22,NNW,329,5.0,10.0,49,0.00,,---,0.01,VWS V14.01,2013-05-25 00:35:00,
2013-05-24 20:40:00,53.8,35.6,30.22,NW,317,4.0,14.0,50,0.00,,---,0.01,VWS V14.01,2013-05-25 00:40:00,
2013-05-24 20:45:00,53.8,35.1,30.22,WNW,291,5.0,14.0,49,0.00,,---,0.01,VWS V14.01,2013-05-25 00:45:00,
2013-05-24 20:50:00,53.7,34.5,30.22,NW,321,2.0,12.0,48,0.00,,---,0.01,VWS V14.01,2013-05-25 00:50:00,
2013-05-24 20:54:00,53.7,35.0,30.22,NW,323,4.0,12.0,49,0.00,,---,0.01,VWS V14.01,2013-05-25 00:54:00,
2013-05-24 20:59:00,53.6,34.9,30.22,NW,314,5.0,12.0,49,0.00,,---,0.01,VWS V14.01,2013-05-25 00:59:00,
2013-05-24 21:04:00,53.7,35.0,30.22,North,350,3.0,12.0,49,0.00,,---,0.01,VWS V14.01,2013-05-25 01:04:00,
2013-05-24 21:09:00,53.5,35.3,30.22,NNW,344,3.0,12.0,50,0.00,,---,0.01,VWS V14.01,2013-05-25 01:09:00,
2013-05-24 21:14:00,53.3,35.2,30.23,SW,228,6.0,12.0,50,0.00,,---,0.01,VWS V14.01,2013-05-25 01:14:00,
2013-05-24 21:19:00,53.4,35.2,30.23,NNW,343,5.0,10.0,50,0.00,,---,0.01,VWS V14.01,2013-05-25 01:19:00,
2013-05-24 21:24:00,53.4,35.7,30.23,NNW,345,6.0,10.0,51,0.00,,---,0.01,VWS V14.01,2013-05-25 01:24:00,
2013-05-24 21:29:00,53.4,35.2,30.23,North,351,1.0,13.0,50,0.00,,---,0.01,VWS V14.01,2013-05-25 01:29:00,
2013-05-24 21:34:00,53.3,35.7,30.24,North,2,2.0,10.0,51,0.00,,---,0.01,VWS V14.01,2013-05-25 01:34:00,
2013-05-24 21:39:00,53.1,35.5,30.24,North,1,1.0,10.0,51,0.00,,---,0.01,VWS V14.01,2013-05-25 01:39:00,
2013-05-24 21:44:00,52.8,35.2,30.24,WNW,300,6.0,10.0,51,0.00,,---,0.01,VWS V14.01,2013-05-25 01:44:00,
2013-05-24 21:49:00,52.9,35.8,30.24,NNW,341,1.0,5.0,52,0.00,,---,0.01,VWS V14.01,2013-05-25 01:49:00,
2013-05-24 21:54:00,52.8,35.7,30.25,ESE,103,2.0,5.0,52,0.00,,---,0.01,VWS V14.01,2013-05-25 01:54:00,
2013-05-24 21:59:00,52.7,35.6,30.25,SSE,151,1.0,5.0,52,0.00,,---,0.01,VWS V14.01,2013-05-25 01:59:00,
2013-05-24 22:04:00,52.4,35.8,30.25,SE,128,1.0,3.0,53,0.00,,---,0.01,VWS V14.01,2013-05-25 02:04:00,
2013-05-24 22:09:00,52.2,37.0,30.25,WSW,242,1.0,3.0,56,0.00,,---,0.01,VWS V14.01,2013-05-25 02:09:00,
2013-05-24 22:14:00,51.6,36.4,30.25,South,187,0.0,3.0,56,0.00,,---,0.01,VWS V14.01,2013-05-25 02:14:00,
2013-05-24 22:19:00,51.2,37.0,30.25,ESE,120,1.0,6.0,58,0.00,,---,0.01,VWS V14.01,2013-05-25 02:19:00,
2013-05-24 22:24:00,50.5,36.7,30.25,ESE,117,0.0,6.0,59,0.00,,---,0.01,VWS V14.01,2013-05-25 02:24:00,
2013-05-24 22:29:00,50.4,38.7,30.25,ESE,121,0.0,6.0,64,0.00,,---,0.01,VWS V14.01,2013-05-25 02:29:00,
2013-05-24 22:34:00,50.2,38.1,30.26,NW,307,0.0,2.0,63,0.00,,---,0.01,VWS V14.01,2013-05-25 02:34:00,
2013-05-24 22:39:00,49.9,38.2,30.25,SE,135,0.0,2.0,64,0.00,,---,0.01,VWS V14.01,2013-05-25 02:39:00,
2013-05-24 22:44:00,49.5,37.4,30.25,SE,135,1.0,2.0,63,0.00,,---,0.01,VWS V14.01,2013-05-25 02:44:00,
2013-05-24 22:49:00,49.2,38.0,30.25,SE,135,0.0,1.0,65,0.00,,---,0.01,VWS V14.01,2013-05-25 02:49:00,
2013-05-24 22:54:00,48.8,39.1,30.26,East,85,0.0,1.0,69,0.00,,---,0.01,VWS V14.01,2013-05-25 02:54:00,
2013-05-24 22:59:00,48.2,38.2,30.26,East,85,0.0,2.0,68,0.00,,---,0.01,VWS V14.01,2013-05-25 02:59:00,
2013-05-24 23:04:00,48.0,38.7,30.26,East,85,0.0,1.0,70,0.00,,---,0.01,VWS V14.01,2013-05-25 03:04:00,
2013-05-24 23:09:00,47.5,38.6,30.26,NE,41,0.0,2.0,71,0.00,,---,0.01,VWS V14.01,2013-05-25 03:09:00,
2013-05-24 23:14:00,47.1,39.6,30.26,NE,41,0.0,2.0,75,0.00,,---,0.01,VWS V14.01,2013-05-25 03:14:00,
2013-05-24 23:19:00,46.8,39.3,30.26,North,357,2.0,5.0,75,0.00,,---,0.01,VWS V14.01,2013-05-25 03:19:00,
2013-05-24 23:24:00,47.2,39.0,30.26,NW,317,0.0,5.0,73,0.00,,---,0.01,VWS V14.01,2013-05-25 03:24:00,
2013-05-24 23:29:00,47.7,39.5,30.26,NW,325,0.0,5.0,73,0.00,,---,0.01,VWS V14.01,2013-05-25 03:29:00,
2013-05-24 23:34:00,47.4,37.8,30.26,NNW,344,1.0,5.0,69,0.00,,---,0.01,VWS V14.01,2013-05-25 03:34:00,
2013-05-24 23:39:00,48.4,37.6,30.26,NNW,337,1.0,5.0,66,0.00,,---,0.01,VWS V14.01,2013-05-25 03:39:00,
2013-05-24 23:44:00,49.2,39.1,30.26,North,352,0.0,5.0,68,0.00,,---,0.01,VWS V14.01,2013-05-25 03:44:00,
2013-05-24 23:49:00,49.3,37.7,30.25,North,1,2.0,4.0,64,0.00,,---,0.01,VWS V14.01,2013-05-25 03:49:00,
2013-05-24 23:54:00,49.5,39.4,30.25,North,1,0.0,4.0,68,0.00,,---,0.01,VWS V14.01,2013-05-25 03:54:00,
2013-05-24 23:59:00,49.0,40.7,30.25,North,1,0.0,4.0,73,0.00,,---,0.01,VWS V14.01,2013-05-25 03:59:00,